フランクフルト の空港の天気 - METARとTAF

フランクフルト国際空港 ( EDDF / FRA ) - ドイツ フランクフルト・アム・マイン
飛行場実況気象(Metar)
観測時間11/14 18:20 CET (11/14 17:20 UTC)
風向・風速東 6m/s
視程10km以上
天気現象
全天を覆う雲 雲底高度 180m
気温7℃
湿度93%
気圧1029hPa
METAREDDF 141720Z 08011KT 9999 OVC006 07/06 Q1029 BECMG 3000 BCFG BKN003
過去の天気等 Google飛行場航空写真 Wunderground天気予報

過去48時間のMETAR

飛行場予報(TAF)
発表時間: 11/14 18:00 CET (11/14 17:00 UTC)
予報対象時間: 14日19時 CET ~ 16日1時 CET
風向・風速東北東 4m/s
視程5000m
天気現象もや
全天の8割程度の雲 雲底高度 150m
14日19時 CET ~ 14日21時 CET に徐々に
風向・風速不定 2m/s
視程1200m
天気現象散在した霧
全天の8割程度の雲 雲底高度 90m
14日19時 CET ~ 15日10時 CET に一時的に
視程300m
天気現象
全天を覆う雲 鉛直視程 30m
15日10時 CET ~ 15日13時 CET に徐々に
風向・風速東北東 3m/s
視程4000m
天気現象もや
全天の8割程度の雲 雲底高度 180m
15日13時 CET ~ 15日22時 CET に一時的に
視程6000m
全天の4割程度の雲 雲底高度 180m
TAF EDDF 141700Z 1418/1524 06007KT 5000 BR BKN005
BECMG 1418/1420 VRB03KT 1200 BCFG BKN003
TEMPO 1418/1509 0300 FG VV001
BECMG 1509/1512 06005KT 4000 BR BKN006
TEMPO 1512/1521 6000 SCT006